sensor_id;sensor_type;location;lat;lon;timestamp;P1;P2;P0
26185;PMS7003;20067;48.764;9.176;2023-06-19T00:02:17;22.00;21.00;14.00
26185;PMS7003;20067;48.764;9.176;2023-06-19T00:04:43;22.75;21.25;14.00
26185;PMS7003;20067;48.764;9.176;2023-06-19T00:07:08;22.75;21.00;13.00
26185;PMS7003;20067;48.764;9.176;2023-06-19T00:09:34;22.00;21.75;15.00
26185;PMS7003;20067;48.764;9.176;2023-06-19T00:12:00;23.00;21.50;15.00
26185;PMS7003;20067;48.764;9.176;2023-06-19T00:14:26;23.75;23.25;14.75
26185;PMS7003;20067;48.764;9.176;2023-06-19T00:16:52;22.00;21.75;14.00
26185;PMS7003;20067;48.764;9.176;2023-06-19T00:19:17;23.25;18.50;13.00
26185;PMS7003;20067;48.764;9.176;2023-06-19T00:21:43;16.25;16.25;11.25
26185;PMS7003;20067;48.764;9.176;2023-06-19T00:24:09;17.25;16.00;11.00
26185;PMS7003;20067;48.764;9.176;2023-06-19T00:26:35;18.75;17.75;11.50
26185;PMS7003;20067;48.764;9.176;2023-06-19T00:29:01;18.00;17.75;12.75
26185;PMS7003;20067;48.764;9.176;2023-06-19T00:31:27;23.75;22.75;13.75
26185;PMS7003;20067;48.764;9.176;2023-06-19T00:33:53;19.25;18.75;12.25
26185;PMS7003;20067;48.764;9.176;2023-06-19T00:36:19;24.00;22.25;15.00
26185;PMS7003;20067;48.764;9.176;2023-06-19T00:38:46;22.50;19.50;12.00
26185;PMS7003;20067;48.764;9.176;2023-06-19T00:41:13;21.00;20.25;14.75
26185;PMS7003;20067;48.764;9.176;2023-06-19T00:43:40;19.00;19.00;13.00
26185;PMS7003;20067;48.764;9.176;2023-06-19T00:46:06;19.50;17.75;12.75
26185;PMS7003;20067;48.764;9.176;2023-06-19T00:48:32;17.00;16.00;9.00
26185;PMS7003;20067;48.764;9.176;2023-06-19T00:50:59;19.25;17.00;12.00
26185;PMS7003;20067;48.764;9.176;2023-06-19T00:53:25;21.00;20.00;12.50
26185;PMS7003;20067;48.764;9.176;2023-06-19T00:55:52;21.25;19.50;13.00
26185;PMS7003;20067;48.764;9.176;2023-06-19T00:58:20;18.50;17.25;12.75
26185;PMS7003;20067;48.764;9.176;2023-06-19T01:00:46;20.25;19.50;12.00
26185;PMS7003;20067;48.764;9.176;2023-06-19T01:03:13;19.00;18.25;13.00
26185;PMS7003;20067;48.764;9.176;2023-06-19T01:05:39;20.25;18.25;12.00
26185;PMS7003;20067;48.764;9.176;2023-06-19T01:08:09;21.25;21.00;15.00
26185;PMS7003;20067;48.764;9.176;2023-06-19T01:10:44;18.75;18.75;10.75
26185;PMS7003;20067;48.764;9.176;2023-06-19T01:15:46;24.25;23.00;13.50
26185;PMS7003;20067;48.764;9.176;2023-06-19T01:18:13;22.25;21.50;14.75
26185;PMS7003;20067;48.764;9.176;2023-06-19T01:20:40;21.50;18.75;13.00
26185;PMS7003;20067;48.764;9.176;2023-06-19T01:23:10;25.00;23.25;14.75
26185;PMS7003;20067;48.764;9.176;2023-06-19T01:25:36;22.75;19.50;13.50
26185;PMS7003;20067;48.764;9.176;2023-06-19T01:28:03;23.00;20.00;14.00
26185;PMS7003;20067;48.764;9.176;2023-06-19T01:30:31;24.00;22.00;15.25
26185;PMS7003;20067;48.764;9.176;2023-06-19T01:33:16;20.75;19.00;12.75
26185;PMS7003;20067;48.764;9.176;2023-06-19T01:35:47;19.00;19.00;12.00
26185;PMS7003;20067;48.764;9.176;2023-06-19T01:38:14;23.00;20.25;12.00
26185;PMS7003;20067;48.764;9.176;2023-06-19T01:40:42;18.50;18.50;12.25
26185;PMS7003;20067;48.764;9.176;2023-06-19T01:43:08;24.75;20.50;15.00
26185;PMS7003;20067;48.764;9.176;2023-06-19T01:45:35;17.00;16.50;11.00
26185;PMS7003;20067;48.764;9.176;2023-06-19T01:48:01;21.75;19.00;13.25
26185;PMS7003;20067;48.764;9.176;2023-06-19T01:50:27;16.50;15.25;10.75
26185;PMS7003;20067;48.764;9.176;2023-06-19T01:52:52;22.75;19.75;12.00
26185;PMS7003;20067;48.764;9.176;2023-06-19T01:55:18;17.75;17.50;11.50
26185;PMS7003;20067;48.764;9.176;2023-06-19T01:57:45;17.50;17.00;10.00
26185;PMS7003;20067;48.764;9.176;2023-06-19T02:00:13;15.00;14.00;9.75
26185;PMS7003;20067;48.764;9.176;2023-06-19T02:02:39;16.25;15.50;10.00
26185;PMS7003;20067;48.764;9.176;2023-06-19T02:05:05;18.75;17.00;11.25
26185;PMS7003;20067;48.764;9.176;2023-06-19T02:07:30;18.00;17.25;11.00
26185;PMS7003;20067;48.764;9.176;2023-06-19T02:09:56;17.50;14.00;10.25
26185;PMS7003;20067;48.764;9.176;2023-06-19T02:12:22;21.00;18.00;12.00
26185;PMS7003;20067;48.764;9.176;2023-06-19T02:14:48;22.25;17.50;11.75
26185;PMS7003;20067;48.764;9.176;2023-06-19T02:17:14;16.50;15.00;10.00
26185;PMS7003;20067;48.764;9.176;2023-06-19T02:19:39;18.00;17.00;11.50
26185;PMS7003;20067;48.764;9.176;2023-06-19T02:22:05;17.75;17.75;12.50
26185;PMS7003;20067;48.764;9.176;2023-06-19T02:24:31;20.00;18.75;11.25
26185;PMS7003;20067;48.764;9.176;2023-06-19T02:26:57;19.25;17.50;10.00
26185;PMS7003;20067;48.764;9.176;2023-06-19T02:29:23;19.00;18.75;10.00
26185;PMS7003;20067;48.764;9.176;2023-06-19T02:31:49;16.75;14.75;9.25
26185;PMS7003;20067;48.764;9.176;2023-06-19T02:34:15;19.00;16.00;9.75
26185;PMS7003;20067;48.764;9.176;2023-06-19T02:36:41;19.75;17.50;9.50
26185;PMS7003;20067;48.764;9.176;2023-06-19T02:39:07;16.50;15.75;9.00
26185;PMS7003;20067;48.764;9.176;2023-06-19T02:41:34;16.25;16.25;9.25
26185;PMS7003;20067;48.764;9.176;2023-06-19T02:44:00;19.25;17.25;11.75
26185;PMS7003;20067;48.764;9.176;2023-06-19T02:46:25;18.00;14.25;8.75
26185;PMS7003;20067;48.764;9.176;2023-06-19T02:48:51;15.25;13.75;8.75
26185;PMS7003;20067;48.764;9.176;2023-06-19T02:51:17;16.75;15.75;10.00
26185;PMS7003;20067;48.764;9.176;2023-06-19T02:53:42;14.75;14.75;9.00
26185;PMS7003;20067;48.764;9.176;2023-06-19T02:56:09;13.00;11.50;8.00
26185;PMS7003;20067;48.764;9.176;2023-06-19T02:58:36;18.25;14.25;9.00
26185;PMS7003;20067;48.764;9.176;2023-06-19T03:01:03;19.50;16.50;10.00
26185;PMS7003;20067;48.764;9.176;2023-06-19T03:03:31;13.00;13.00;9.00
26185;PMS7003;20067;48.764;9.176;2023-06-19T03:06:02;12.50;12.00;8.00
26185;PMS7003;20067;48.764;9.176;2023-06-19T03:08:31;14.75;11.50;8.00
26185;PMS7003;20067;48.764;9.176;2023-06-19T03:11:00;16.50;14.25;9.00
26185;PMS7003;20067;48.764;9.176;2023-06-19T03:13:29;14.50;12.75;9.25
26185;PMS7003;20067;48.764;9.176;2023-06-19T03:15:56;16.00;15.25;9.25
26185;PMS7003;20067;48.764;9.176;2023-06-19T03:18:22;13.50;12.00;8.00
26185;PMS7003;20067;48.764;9.176;2023-06-19T03:20:48;13.00;13.00;9.00
26185;PMS7003;20067;48.764;9.176;2023-06-19T03:23:13;12.50;12.25;8.00
26185;PMS7003;20067;48.764;9.176;2023-06-19T03:25:39;14.25;10.25;7.50
26185;PMS7003;20067;48.764;9.176;2023-06-19T03:28:07;16.75;14.75;9.00
26185;PMS7003;20067;48.764;9.176;2023-06-19T03:30:33;13.50;13.50;9.00
26185;PMS7003;20067;48.764;9.176;2023-06-19T03:32:59;16.00;14.75;9.00
26185;PMS7003;20067;48.764;9.176;2023-06-19T03:35:24;15.00;14.50;9.00
26185;PMS7003;20067;48.764;9.176;2023-06-19T03:37:50;15.50;13.25;8.00
26185;PMS7003;20067;48.764;9.176;2023-06-19T03:40:15;11.50;10.75;6.00
26185;PMS7003;20067;48.764;9.176;2023-06-19T03:42:41;14.25;14.00;8.00
26185;PMS7003;20067;48.764;9.176;2023-06-19T03:45:07;10.75;10.75;6.00
26185;PMS7003;20067;48.764;9.176;2023-06-19T03:47:33;11.00;11.00;6.50
26185;PMS7003;20067;48.764;9.176;2023-06-19T03:49:59;13.00;11.25;7.00
26185;PMS7003;20067;48.764;9.176;2023-06-19T03:52:24;11.50;11.50;5.00
26185;PMS7003;20067;48.764;9.176;2023-06-19T03:54:50;9.50;9.50;4.50
26185;PMS7003;20067;48.764;9.176;2023-06-19T03:57:15;9.75;8.00;4.00
26185;PMS7003;20067;48.764;9.176;2023-06-19T03:59:41;10.50;10.00;4.75
26185;PMS7003;20067;48.764;9.176;2023-06-19T04:02:07;9.75;9.00;4.00
26185;PMS7003;20067;48.764;9.176;2023-06-19T04:04:33;11.00;10.00;5.00
26185;PMS7003;20067;48.764;9.176;2023-06-19T04:06:59;9.25;8.25;5.00
26185;PMS7003;20067;48.764;9.176;2023-06-19T04:09:25;9.00;9.00;5.00
26185;PMS7003;20067;48.764;9.176;2023-06-19T04:11:50;9.00;9.00;4.00
26185;PMS7003;20067;48.764;9.176;2023-06-19T04:14:16;9.50;9.50;4.00
26185;PMS7003;20067;48.764;9.176;2023-06-19T04:16:41;12.75;9.00;5.00
26185;PMS7003;20067;48.764;9.176;2023-06-19T04:19:07;8.50;8.50;4.75
26185;PMS7003;20067;48.764;9.176;2023-06-19T04:21:33;10.50;9.00;4.00
26185;PMS7003;20067;48.764;9.176;2023-06-19T04:23:59;10.00;8.50;4.00
26185;PMS7003;20067;48.764;9.176;2023-06-19T04:26:25;9.00;8.50;4.50
26185;PMS7003;20067;48.764;9.176;2023-06-19T04:28:50;9.75;8.75;4.00
26185;PMS7003;20067;48.764;9.176;2023-06-19T04:31:16;9.00;9.00;4.00
26185;PMS7003;20067;48.764;9.176;2023-06-19T04:33:44;9.75;8.50;4.00
26185;PMS7003;20067;48.764;9.176;2023-06-19T04:36:10;11.25;10.50;5.00
26185;PMS7003;20067;48.764;9.176;2023-06-19T04:38:36;9.50;9.00;4.00
26185;PMS7003;20067;48.764;9.176;2023-06-19T04:41:02;11.00;10.50;6.00
26185;PMS7003;20067;48.764;9.176;2023-06-19T04:43:27;10.50;10.00;5.00
26185;PMS7003;20067;48.764;9.176;2023-06-19T04:45:53;8.00;8.00;4.00
26185;PMS7003;20067;48.764;9.176;2023-06-19T04:48:18;9.00;9.00;4.25
26185;PMS7003;20067;48.764;9.176;2023-06-19T04:50:44;9.00;8.75;4.00
26185;PMS7003;20067;48.764;9.176;2023-06-19T04:53:10;9.50;9.50;4.75
26185;PMS7003;20067;48.764;9.176;2023-06-19T04:55:36;8.50;8.50;4.00
26185;PMS7003;20067;48.764;9.176;2023-06-19T04:58:02;10.25;9.25;4.75
26185;PMS7003;20067;48.764;9.176;2023-06-19T05:00:28;9.00;8.75;4.25
26185;PMS7003;20067;48.764;9.176;2023-06-19T05:02:54;9.50;8.50;3.75
26185;PMS7003;20067;48.764;9.176;2023-06-19T05:05:24;9.00;9.00;5.00
26185;PMS7003;20067;48.764;9.176;2023-06-19T05:07:51;9.25;9.25;4.00
26185;PMS7003;20067;48.764;9.176;2023-06-19T05:10:17;9.25;9.00;5.00
26185;PMS7003;20067;48.764;9.176;2023-06-19T05:12:44;9.00;9.00;4.25
26185;PMS7003;20067;48.764;9.176;2023-06-19T05:15:09;10.75;10.50;6.00
26185;PMS7003;20067;48.764;9.176;2023-06-19T05:17:36;13.25;13.00;6.75
26185;PMS7003;20067;48.764;9.176;2023-06-19T05:20:03;12.50;10.50;4.00
26185;PMS7003;20067;48.764;9.176;2023-06-19T05:22:32;12.50;11.75;6.00
26185;PMS7003;20067;48.764;9.176;2023-06-19T05:24:59;12.25;12.25;6.25
26185;PMS7003;20067;48.764;9.176;2023-06-19T05:27:25;14.00;12.00;7.00
26185;PMS7003;20067;48.764;9.176;2023-06-19T05:29:50;12.00;11.00;4.00
26185;PMS7003;20067;48.764;9.176;2023-06-19T05:32:16;14.75;11.50;5.75
26185;PMS7003;20067;48.764;9.176;2023-06-19T05:34:42;10.75;9.00;5.00
26185;PMS7003;20067;48.764;9.176;2023-06-19T05:37:07;9.00;8.25;3.00
26185;PMS7003;20067;48.764;9.176;2023-06-19T05:39:33;8.50;8.50;4.50
26185;PMS7003;20067;48.764;9.176;2023-06-19T05:41:59;11.00;10.25;4.75
26185;PMS7003;20067;48.764;9.176;2023-06-19T05:44:25;10.00;9.00;4.00
26185;PMS7003;20067;48.764;9.176;2023-06-19T05:46:50;10.75;9.75;6.25
26185;PMS7003;20067;48.764;9.176;2023-06-19T05:49:16;11.00;10.50;7.00
26185;PMS7003;20067;48.764;9.176;2023-06-19T05:51:42;10.50;10.25;6.00
26185;PMS7003;20067;48.764;9.176;2023-06-19T05:54:08;12.50;10.00;5.00
26185;PMS7003;20067;48.764;9.176;2023-06-19T05:56:34;11.75;10.50;6.50
26185;PMS7003;20067;48.764;9.176;2023-06-19T05:59:01;14.00;12.00;7.00
26185;PMS7003;20067;48.764;9.176;2023-06-19T06:01:27;12.25;11.00;5.50
26185;PMS7003;20067;48.764;9.176;2023-06-19T06:03:54;10.25;9.50;4.25
26185;PMS7003;20067;48.764;9.176;2023-06-19T06:06:20;9.50;8.75;4.00
26185;PMS7003;20067;48.764;9.176;2023-06-19T06:08:45;10.00;9.00;5.00
26185;PMS7003;20067;48.764;9.176;2023-06-19T06:11:11;10.00;9.00;5.00
26185;PMS7003;20067;48.764;9.176;2023-06-19T06:13:37;8.25;8.25;3.75
26185;PMS7003;20067;48.764;9.176;2023-06-19T06:16:02;9.00;8.25;4.25
26185;PMS7003;20067;48.764;9.176;2023-06-19T06:18:28;12.50;11.00;7.75
26185;PMS7003;20067;48.764;9.176;2023-06-19T06:20:54;10.50;10.00;5.00
26185;PMS7003;20067;48.764;9.176;2023-06-19T06:23:19;10.00;10.00;5.00
26185;PMS7003;20067;48.764;9.176;2023-06-19T06:25:45;11.75;9.75;5.00
26185;PMS7003;20067;48.764;9.176;2023-06-19T06:28:11;10.25;9.00;4.75
26185;PMS7003;20067;48.764;9.176;2023-06-19T06:30:37;8.75;8.00;4.25
26185;PMS7003;20067;48.764;9.176;2023-06-19T06:33:03;11.25;11.25;6.75
26185;PMS7003;20067;48.764;9.176;2023-06-19T06:35:29;8.75;8.75;4.75
26185;PMS7003;20067;48.764;9.176;2023-06-19T06:37:55;11.00;10.00;5.00
26185;PMS7003;20067;48.764;9.176;2023-06-19T06:40:20;10.25;9.75;5.00
26185;PMS7003;20067;48.764;9.176;2023-06-19T06:42:46;10.75;9.50;5.25
26185;PMS7003;20067;48.764;9.176;2023-06-19T06:45:12;10.00;9.00;5.00
26185;PMS7003;20067;48.764;9.176;2023-06-19T06:47:38;9.75;9.75;5.00
26185;PMS7003;20067;48.764;9.176;2023-06-19T06:50:08;9.50;9.50;4.50
26185;PMS7003;20067;48.764;9.176;2023-06-19T06:52:34;8.75;8.75;4.00
26185;PMS7003;20067;48.764;9.176;2023-06-19T06:55:00;7.75;6.25;3.25
26185;PMS7003;20067;48.764;9.176;2023-06-19T06:57:25;8.50;8.00;3.75
26185;PMS7003;20067;48.764;9.176;2023-06-19T06:59:51;9.75;9.75;4.00
26185;PMS7003;20067;48.764;9.176;2023-06-19T07:02:17;8.25;8.25;4.00
26185;PMS7003;20067;48.764;9.176;2023-06-19T07:04:42;6.50;6.00;3.00
26185;PMS7003;20067;48.764;9.176;2023-06-19T07:07:08;9.50;9.50;4.00
26185;PMS7003;20067;48.764;9.176;2023-06-19T07:09:34;7.50;7.50;4.00
26185;PMS7003;20067;48.764;9.176;2023-06-19T07:12:00;9.00;8.75;4.25
26185;PMS7003;20067;48.764;9.176;2023-06-19T07:14:29;9.25;9.00;4.00
26185;PMS7003;20067;48.764;9.176;2023-06-19T07:16:55;10.25;8.75;4.00
26185;PMS7003;20067;48.764;9.176;2023-06-19T07:19:20;7.50;7.50;4.00
26185;PMS7003;20067;48.764;9.176;2023-06-19T07:21:48;9.25;9.25;5.00
26185;PMS7003;20067;48.764;9.176;2023-06-19T07:24:15;10.00;8.00;4.00
26185;PMS7003;20067;48.764;9.176;2023-06-19T07:26:41;9.50;9.50;4.25
26185;PMS7003;20067;48.764;9.176;2023-06-19T07:29:07;9.25;8.00;4.25
26185;PMS7003;20067;48.764;9.176;2023-06-19T07:31:32;9.00;8.25;4.00
26185;PMS7003;20067;48.764;9.176;2023-06-19T07:33:58;8.50;8.00;4.50
26185;PMS7003;20067;48.764;9.176;2023-06-19T07:36:24;9.50;9.50;5.00
26185;PMS7003;20067;48.764;9.176;2023-06-19T07:38:49;10.00;9.50;5.00
26185;PMS7003;20067;48.764;9.176;2023-06-19T07:41:15;8.75;8.75;4.00
26185;PMS7003;20067;48.764;9.176;2023-06-19T07:43:40;8.00;8.00;4.25
26185;PMS7003;20067;48.764;9.176;2023-06-19T07:46:06;9.75;9.75;4.50
26185;PMS7003;20067;48.764;9.176;2023-06-19T07:48:32;8.00;7.50;4.25
26185;PMS7003;20067;48.764;9.176;2023-06-19T07:50:57;8.50;8.50;4.00
26185;PMS7003;20067;48.764;9.176;2023-06-19T07:53:23;9.25;7.00;3.50
26185;PMS7003;20067;48.764;9.176;2023-06-19T07:55:48;8.00;8.00;5.00
26185;PMS7003;20067;48.764;9.176;2023-06-19T07:58:14;7.25;7.00;5.00
26185;PMS7003;20067;48.764;9.176;2023-06-19T08:00:40;9.25;8.00;4.50
26185;PMS7003;20067;48.764;9.176;2023-06-19T08:03:05;9.00;8.75;5.50
26185;PMS7003;20067;48.764;9.176;2023-06-19T08:05:31;8.75;8.75;5.00
26185;PMS7003;20067;48.764;9.176;2023-06-19T08:07:58;8.00;8.00;5.00
26185;PMS7003;20067;48.764;9.176;2023-06-19T08:10:24;10.00;9.00;6.00
26185;PMS7003;20067;48.764;9.176;2023-06-19T08:12:50;8.50;8.50;5.00
26185;PMS7003;20067;48.764;9.176;2023-06-19T08:15:15;9.25;8.00;4.25
26185;PMS7003;20067;48.764;9.176;2023-06-19T08:17:41;10.00;9.00;6.00
26185;PMS7003;20067;48.764;9.176;2023-06-19T08:20:07;9.75;8.25;4.00
26185;PMS7003;20067;48.764;9.176;2023-06-19T08:22:34;9.75;8.25;5.00
26185;PMS7003;20067;48.764;9.176;2023-06-19T08:24:59;9.25;9.25;5.50
26185;PMS7003;20067;48.764;9.176;2023-06-19T08:27:25;10.50;10.00;5.00
26185;PMS7003;20067;48.764;9.176;2023-06-19T08:29:51;10.00;8.50;5.25
26185;PMS7003;20067;48.764;9.176;2023-06-19T08:32:16;12.00;11.25;6.00
26185;PMS7003;20067;48.764;9.176;2023-06-19T08:34:42;9.25;9.25;5.00
26185;PMS7003;20067;48.764;9.176;2023-06-19T08:37:08;10.75;10.00;6.00
26185;PMS7003;20067;48.764;9.176;2023-06-19T08:39:34;8.75;8.75;4.50
26185;PMS7003;20067;48.764;9.176;2023-06-19T08:42:03;10.75;10.00;5.00
26185;PMS7003;20067;48.764;9.176;2023-06-19T08:44:29;11.00;9.00;6.00
26185;PMS7003;20067;48.764;9.176;2023-06-19T08:46:55;7.75;7.75;5.00
26185;PMS7003;20067;48.764;9.176;2023-06-19T08:49:22;10.25;9.75;5.00
26185;PMS7003;20067;48.764;9.176;2023-06-19T08:51:48;8.00;8.00;5.00
26185;PMS7003;20067;48.764;9.176;2023-06-19T08:54:14;8.75;8.75;5.25
26185;PMS7003;20067;48.764;9.176;2023-06-19T08:56:40;11.25;9.50;5.00
26185;PMS7003;20067;48.764;9.176;2023-06-19T09:01:38;8.75;8.75;4.50
26185;PMS7003;20067;48.764;9.176;2023-06-19T09:04:08;6.75;6.75;4.00
26185;PMS7003;20067;48.764;9.176;2023-06-19T09:06:47;8.50;8.00;5.00
26185;PMS7003;20067;48.764;9.176;2023-06-19T09:09:14;8.25;8.25;4.75
26185;PMS7003;20067;48.764;9.176;2023-06-19T09:11:41;8.00;8.00;5.00
26185;PMS7003;20067;48.764;9.176;2023-06-19T09:14:09;7.75;7.75;4.75
26185;PMS7003;20067;48.764;9.176;2023-06-19T09:16:39;8.25;8.00;4.00
26185;PMS7003;20067;48.764;9.176;2023-06-19T09:19:06;7.50;7.25;4.25
26185;PMS7003;20067;48.764;9.176;2023-06-19T09:21:34;7.25;7.25;4.00
26185;PMS7003;20067;48.764;9.176;2023-06-19T09:24:06;9.00;8.25;5.00
26185;PMS7003;20067;48.764;9.176;2023-06-19T09:26:33;10.00;8.00;4.00
26185;PMS7003;20067;48.764;9.176;2023-06-19T09:29:12;8.00;8.00;4.00
26185;PMS7003;20067;48.764;9.176;2023-06-19T09:31:41;8.50;8.50;4.00
26185;PMS7003;20067;48.764;9.176;2023-06-19T09:34:07;8.00;7.75;4.00
26185;PMS7003;20067;48.764;9.176;2023-06-19T09:36:33;10.25;9.25;5.00
26185;PMS7003;20067;48.764;9.176;2023-06-19T09:39:01;7.25;7.00;4.25
26185;PMS7003;20067;48.764;9.176;2023-06-19T09:41:31;10.00;9.00;5.00
26185;PMS7003;20067;48.764;9.176;2023-06-19T09:43:59;8.00;7.50;4.00
26185;PMS7003;20067;48.764;9.176;2023-06-19T09:46:26;7.75;7.75;4.50
26185;PMS7003;20067;48.764;9.176;2023-06-19T09:48:59;9.00;7.00;4.00
26185;PMS7003;20067;48.764;9.176;2023-06-19T09:51:29;8.50;7.75;5.00
26185;PMS7003;20067;48.764;9.176;2023-06-19T09:53:57;9.00;9.00;5.25
26185;PMS7003;20067;48.764;9.176;2023-06-19T09:56:24;9.00;8.00;5.00
26185;PMS7003;20067;48.764;9.176;2023-06-19T09:58:52;12.00;11.25;6.00
26185;PMS7003;20067;48.764;9.176;2023-06-19T10:01:21;10.75;10.75;6.25
26185;PMS7003;20067;48.764;9.176;2023-06-19T10:03:48;10.00;10.00;6.00
26185;PMS7003;20067;48.764;9.176;2023-06-19T10:06:15;9.25;9.25;6.00
26185;PMS7003;20067;48.764;9.176;2023-06-19T10:08:41;11.00;10.25;6.00
26185;PMS7003;20067;48.764;9.176;2023-06-19T10:11:12;12.00;12.00;7.00
26185;PMS7003;20067;48.764;9.176;2023-06-19T10:13:39;12.25;11.75;7.00
26185;PMS7003;20067;48.764;9.176;2023-06-19T10:16:07;13.00;11.50;7.50
26185;PMS7003;20067;48.764;9.176;2023-06-19T10:18:43;10.50;10.00;5.75
26185;PMS7003;20067;48.764;9.176;2023-06-19T10:21:17;12.25;11.00;7.25
26185;PMS7003;20067;48.764;9.176;2023-06-19T10:23:51;10.25;9.75;6.00
26185;PMS7003;20067;48.764;9.176;2023-06-19T10:26:29;11.50;10.75;6.75
26185;PMS7003;20067;48.764;9.176;2023-06-19T10:28:59;10.00;9.25;6.00
26185;PMS7003;20067;48.764;9.176;2023-06-19T10:31:25;11.00;9.75;5.25
26185;PMS7003;20067;48.764;9.176;2023-06-19T10:33:53;10.75;10.75;7.00
26185;PMS7003;20067;48.764;9.176;2023-06-19T10:36:20;12.00;11.00;7.50
26185;PMS7003;20067;48.764;9.176;2023-06-19T10:38:51;10.50;10.00;7.00
26185;PMS7003;20067;48.764;9.176;2023-06-19T10:41:17;10.75;10.75;7.00
26185;PMS7003;20067;48.764;9.176;2023-06-19T10:43:57;12.00;11.00;7.00
26185;PMS7003;20067;48.764;9.176;2023-06-19T10:46:30;12.75;12.50;8.00
26185;PMS7003;20067;48.764;9.176;2023-06-19T10:48:57;10.75;10.00;7.00
26185;PMS7003;20067;48.764;9.176;2023-06-19T10:51:26;11.00;11.00;6.50
26185;PMS7003;20067;48.764;9.176;2023-06-19T10:53:56;13.00;12.00;7.00
26185;PMS7003;20067;48.764;9.176;2023-06-19T10:56:22;11.25;11.25;7.00
26185;PMS7003;20067;48.764;9.176;2023-06-19T10:58:56;11.00;9.25;6.00
26185;PMS7003;20067;48.764;9.176;2023-06-19T11:01:36;11.50;11.00;6.75
26185;PMS7003;20067;48.764;9.176;2023-06-19T11:04:13;11.00;10.75;6.50
26185;PMS7003;20067;48.764;9.176;2023-06-19T11:06:40;12.25;11.25;6.25
26185;PMS7003;20067;48.764;9.176;2023-06-19T11:09:08;12.00;12.00;7.00
26185;PMS7003;20067;48.764;9.176;2023-06-19T11:14:01;9.75;9.25;6.00
26185;PMS7003;20067;48.764;9.176;2023-06-19T11:16:26;11.00;10.00;6.00
26185;PMS7003;20067;48.764;9.176;2023-06-19T11:18:56;9.00;9.00;5.75
26185;PMS7003;20067;48.764;9.176;2023-06-19T11:21:29;11.25;10.25;6.75
26185;PMS7003;20067;48.764;9.176;2023-06-19T11:24:10;8.75;8.75;5.00
26185;PMS7003;20067;48.764;9.176;2023-06-19T11:26:37;10.75;10.00;6.00
26185;PMS7003;20067;48.764;9.176;2023-06-19T11:29:17;9.25;9.25;6.00
26185;PMS7003;20067;48.764;9.176;2023-06-19T11:31:47;10.00;10.00;5.75
26185;PMS7003;20067;48.764;9.176;2023-06-19T11:34:14;11.00;9.00;5.25
26185;PMS7003;20067;48.764;9.176;2023-06-19T11:36:41;12.00;11.00;6.00
26185;PMS7003;20067;48.764;9.176;2023-06-19T11:39:11;10.25;9.50;6.00
26185;PMS7003;20067;48.764;9.176;2023-06-19T11:41:40;11.00;10.00;6.50
26185;PMS7003;20067;48.764;9.176;2023-06-19T11:44:09;11.00;10.00;5.25
26185;PMS7003;20067;48.764;9.176;2023-06-19T11:46:35;11.50;11.50;8.00
26185;PMS7003;20067;48.764;9.176;2023-06-19T11:49:34;10.75;10.00;7.00
26185;PMS7003;20067;48.764;9.176;2023-06-19T11:51:57;10.25;10.00;7.00
26185;PMS7003;20067;48.764;9.176;2023-06-19T11:54:23;11.25;10.25;7.00
26185;PMS7003;20067;48.764;9.176;2023-06-19T11:56:48;11.25;11.25;6.25
26185;PMS7003;20067;48.764;9.176;2023-06-19T11:59:14;11.00;11.00;6.25
26185;PMS7003;20067;48.764;9.176;2023-06-19T12:01:40;11.25;11.25;7.00
26185;PMS7003;20067;48.764;9.176;2023-06-19T12:04:07;12.00;11.00;7.00
26185;PMS7003;20067;48.764;9.176;2023-06-19T12:06:32;12.50;11.50;7.25
26185;PMS7003;20067;48.764;9.176;2023-06-19T12:09:00;12.50;12.00;7.25
26185;PMS7003;20067;48.764;9.176;2023-06-19T12:11:26;12.00;11.00;7.00
26185;PMS7003;20067;48.764;9.176;2023-06-19T12:13:51;11.50;11.50;7.25
26185;PMS7003;20067;48.764;9.176;2023-06-19T12:16:18;11.00;11.00;6.50
26185;PMS7003;20067;48.764;9.176;2023-06-19T12:18:44;10.75;10.50;6.75
26185;PMS7003;20067;48.764;9.176;2023-06-19T12:21:09;10.00;10.00;6.00
26185;PMS7003;20067;48.764;9.176;2023-06-19T12:23:35;11.50;11.50;8.00
26185;PMS7003;20067;48.764;9.176;2023-06-19T12:26:01;14.00;12.00;7.00
26185;PMS7003;20067;48.764;9.176;2023-06-19T12:28:26;10.75;10.50;7.00
26185;PMS7003;20067;48.764;9.176;2023-06-19T12:30:52;10.50;9.25;5.75
26185;PMS7003;20067;48.764;9.176;2023-06-19T12:33:21;12.50;12.50;7.25
26185;PMS7003;20067;48.764;9.176;2023-06-19T12:35:46;9.00;9.00;6.00
26185;PMS7003;20067;48.764;9.176;2023-06-19T12:38:12;9.00;9.00;6.25
26185;PMS7003;20067;48.764;9.176;2023-06-19T12:40:38;10.00;10.00;6.00
26185;PMS7003;20067;48.764;9.176;2023-06-19T12:43:04;11.25;11.25;6.75
26185;PMS7003;20067;48.764;9.176;2023-06-19T12:45:30;11.75;11.75;7.75
26185;PMS7003;20067;48.764;9.176;2023-06-19T12:47:56;13.00;11.25;7.00
26185;PMS7003;20067;48.764;9.176;2023-06-19T12:50:22;13.50;13.50;8.00
26185;PMS7003;20067;48.764;9.176;2023-06-19T12:52:48;15.75;13.25;7.00
26185;PMS7003;20067;48.764;9.176;2023-06-19T12:55:14;12.00;9.50;6.25
26185;PMS7003;20067;48.764;9.176;2023-06-19T12:57:40;13.75;11.75;7.00
26185;PMS7003;20067;48.764;9.176;2023-06-19T13:00:07;13.75;12.75;8.50
26185;PMS7003;20067;48.764;9.176;2023-06-19T13:02:35;14.25;13.25;8.00
26185;PMS7003;20067;48.764;9.176;2023-06-19T13:05:01;12.75;12.75;7.75
26185;PMS7003;20067;48.764;9.176;2023-06-19T13:07:26;12.00;12.00;8.00
26185;PMS7003;20067;48.764;9.176;2023-06-19T13:09:52;11.75;11.75;7.75
26185;PMS7003;20067;48.764;9.176;2023-06-19T13:12:18;13.75;13.75;8.00
26185;PMS7003;20067;48.764;9.176;2023-06-19T13:14:44;11.00;10.50;6.00
26185;PMS7003;20067;48.764;9.176;2023-06-19T13:17:09;10.00;10.00;6.25
26185;PMS7003;20067;48.764;9.176;2023-06-19T13:19:35;14.00;10.50;6.00
26185;PMS7003;20067;48.764;9.176;2023-06-19T13:22:00;14.25;12.25;7.00
26185;PMS7003;20067;48.764;9.176;2023-06-19T13:24:26;10.00;9.25;6.00
26185;PMS7003;20067;48.764;9.176;2023-06-19T13:26:52;10.75;10.75;6.75
26185;PMS7003;20067;48.764;9.176;2023-06-19T13:29:19;13.00;11.25;8.00
26185;PMS7003;20067;48.764;9.176;2023-06-19T13:31:44;11.50;11.50;7.00
26185;PMS7003;20067;48.764;9.176;2023-06-19T13:34:10;13.75;13.75;9.00
26185;PMS7003;20067;48.764;9.176;2023-06-19T13:36:36;12.25;12.00;7.00
26185;PMS7003;20067;48.764;9.176;2023-06-19T13:39:02;12.00;11.00;7.00
26185;PMS7003;20067;48.764;9.176;2023-06-19T13:41:29;13.75;12.75;8.00
26185;PMS7003;20067;48.764;9.176;2023-06-19T13:43:57;11.75;11.00;8.00
26185;PMS7003;20067;48.764;9.176;2023-06-19T13:46:23;13.25;12.75;7.75
26185;PMS7003;20067;48.764;9.176;2023-06-19T13:48:49;11.75;11.75;8.00
26185;PMS7003;20067;48.764;9.176;2023-06-19T13:51:19;15.50;13.50;8.00
26185;PMS7003;20067;48.764;9.176;2023-06-19T13:53:46;10.50;9.50;6.75
26185;PMS7003;20067;48.764;9.176;2023-06-19T13:56:12;11.25;10.50;7.00
26185;PMS7003;20067;48.764;9.176;2023-06-19T13:58:38;11.25;11.25;7.50
26185;PMS7003;20067;48.764;9.176;2023-06-19T14:01:04;11.75;10.50;6.50
26185;PMS7003;20067;48.764;9.176;2023-06-19T14:03:30;11.75;10.50;6.50
26185;PMS7003;20067;48.764;9.176;2023-06-19T14:05:56;12.75;12.00;8.00
26185;PMS7003;20067;48.764;9.176;2023-06-19T14:08:21;11.00;11.00;7.25
26185;PMS7003;20067;48.764;9.176;2023-06-19T14:10:47;13.75;13.75;9.00